Time;durP1;ratioP1;P1;durP2;ratioP2;P2;SDS_P1;SDS_P2;PMS_P1;PMS_P2;Temp;Humidity;BMP_temperature;BMP_pressure;BME280_temperature;BME280_humidity;BME280_pressure;Samples;Min_cycle;Max_cycle;Signal;HPM_P1;HPM_P2
2023/10/18 00:00:18;;;;;;;15.38;6.38;;;7.50;70.70;;;;;;5002219;28;20273;-76
2023/10/18 00:02:46;;;;;;;16.77;7.07;;;7.50;70.80;;;;;;5007738;28;20046;-76
2023/10/18 00:05:15;;;;;;;15.73;6.88;;;7.50;70.90;;;;;;5016952;28;20042;-76
2023/10/18 00:07:43;;;;;;;16.55;7.38;;;7.50;71.10;;;;;;5029025;28;20050;-76
2023/10/18 00:10:11;;;;;;;15.63;7.10;;;7.40;71.20;;;;;;5026738;28;20639;-75
2023/10/18 00:12:39;;;;;;;14.93;7.07;;;7.40;71.60;;;;;;5026249;28;20892;-76
2023/10/18 00:15:08;;;;;;;15.55;7.30;;;7.40;71.80;;;;;;5026832;28;20504;-75
2023/10/18 00:17:36;;;;;;;17.83;7.38;;;7.20;72.00;;;;;;5010762;28;20181;-76
2023/10/18 00:20:08;;;;;;;16.73;7.80;;;7.20;72.00;;;;;;5021151;28;20059;-76
2023/10/18 00:22:35;;;;;;;17.40;7.77;;;7.20;72.20;;;;;;5006973;28;20074;-76
2023/10/18 00:25:03;;;;;;;15.20;7.63;;;7.20;72.30;;;;;;5018415;28;20250;-75
2023/10/18 00:27:29;;;;;;;16.40;7.13;;;7.20;72.50;;;;;;5028716;28;20172;-76
2023/10/18 00:29:58;;;;;;;17.30;7.45;;;7.20;72.60;;;;;;5003979;28;20561;-75
2023/10/18 00:32:26;;;;;;;19.15;8.73;;;7.20;72.70;;;;;;5007120;28;20043;-76
2023/10/18 00:34:55;;;;;;;17.23;7.57;;;7.20;72.70;;;;;;4995870;28;20046;-76
2023/10/18 00:37:25;;;;;;;15.60;7.95;;;7.10;72.80;;;;;;5010884;28;20292;-76
2023/10/18 00:39:52;;;;;;;16.58;7.90;;;7.10;72.80;;;;;;5005060;28;20054;-76
2023/10/18 00:42:27;;;;;;;15.82;7.38;;;7.10;72.90;;;;;;4990489;28;20492;-77
2023/10/18 00:45:01;;;;;;;16.15;7.45;;;7.10;72.90;;;;;;4990208;28;20054;-75
2023/10/18 00:47:30;;;;;;;16.93;7.90;;;7.20;73.10;;;;;;4988812;28;20054;-76
2023/10/18 00:49:58;;;;;;;18.60;8.07;;;7.20;73.20;;;;;;4989261;28;20352;-76
2023/10/18 00:52:29;;;;;;;20.05;8.57;;;7.10;73.10;;;;;;4988843;28;20050;-75
2023/10/18 00:54:58;;;;;;;18.77;7.97;;;7.10;73.10;;;;;;4989155;28;20501;-75
2023/10/18 00:57:34;;;;;;;18.83;8.27;;;7.00;73.30;;;;;;4988791;28;20058;-75
2023/10/18 01:00:06;;;;;;;19.37;8.30;;;7.00;73.40;;;;;;4988615;28;20544;-76
2023/10/18 01:02:36;;;;;;;19.83;8.57;;;7.00;73.70;;;;;;5006439;28;20266;-76
2023/10/18 01:05:08;;;;;;;16.98;8.30;;;6.90;73.80;;;;;;4990736;28;20693;-76
2023/10/18 01:07:37;;;;;;;19.52;8.70;;;6.90;73.90;;;;;;4990438;28;20085;-75
2023/10/18 01:10:07;;;;;;;20.88;8.75;;;6.90;74.10;;;;;;5007019;28;20150;-75
2023/10/18 01:12:35;;;;;;;20.77;8.90;;;6.90;74.20;;;;;;4989865;28;20046;-75
2023/10/18 01:15:06;;;;;;;19.67;9.15;;;6.80;74.30;;;;;;5015543;28;20821;-76
2023/10/18 01:17:42;;;;;;;21.15;9.15;;;6.80;74.40;;;;;;5009627;28;20088;-75
2023/10/18 01:20:33;;;;;;;23.52;9.57;;;6.80;74.50;;;;;;5021563;28;20054;-76
2023/10/18 01:23:02;;;;;;;19.92;9.13;;;6.90;74.60;;;;;;5008400;28;20536;-75
2023/10/18 01:25:30;;;;;;;21.67;9.47;;;6.90;74.80;;;;;;4993411;28;20054;-75
2023/10/18 01:27:59;;;;;;;21.38;9.73;;;6.80;75.00;;;;;;5010036;28;20258;-75
2023/10/18 01:30:29;;;;;;;19.65;9.20;;;6.80;74.90;;;;;;5000214;28;20042;-75
2023/10/18 01:32:56;;;;;;;20.48;9.63;;;6.70;74.80;;;;;;5029407;28;20061;-76
2023/10/18 01:35:23;;;;;;;20.42;9.32;;;6.70;75.20;;;;;;5029688;28;20128;-76
2023/10/18 01:37:53;;;;;;;22.27;9.53;;;6.70;75.30;;;;;;5012765;28;20050;-76
2023/10/18 01:40:22;;;;;;;19.42;8.70;;;6.60;75.30;;;;;;5045849;28;20341;-76
2023/10/18 01:42:56;;;;;;;23.73;10.15;;;6.60;75.50;;;;;;5030406;28;20148;-76
2023/10/18 01:45:23;;;;;;;24.52;10.88;;;6.60;75.60;;;;;;5013037;28;20046;-76
2023/10/18 01:47:51;;;;;;;22.65;9.70;;;6.60;75.60;;;;;;5013074;28;20053;-76
2023/10/18 01:50:18;;;;;;;20.37;9.73;;;6.60;75.80;;;;;;5025094;28;20051;-76
2023/10/18 01:52:46;;;;;;;21.05;9.75;;;6.60;76.10;;;;;;5009294;28;20890;-76
2023/10/18 01:55:13;;;;;;;25.40;9.88;;;6.60;75.80;;;;;;4993883;28;20054;-77
2023/10/18 01:57:41;;;;;;;22.63;10.43;;;6.60;75.90;;;;;;4993369;28;20058;-76
2023/10/18 02:00:18;;;;;;;21.35;10.23;;;6.60;76.00;;;;;;4995180;28;20082;-76
2023/10/18 02:02:46;;;;;;;22.80;10.50;;;6.60;76.00;;;;;;5012583;28;20050;-76
2023/10/18 02:05:15;;;;;;;21.77;10.35;;;6.70;76.20;;;;;;5028183;28;20753;-76
2023/10/18 02:07:46;;;;;;;22.30;10.05;;;6.70;76.30;;;;;;4992991;28;20053;-76
2023/10/18 02:10:20;;;;;;;22.38;9.85;;;6.70;76.30;;;;;;5011875;28;20521;-76
2023/10/18 02:12:48;;;;;;;23.38;10.20;;;6.70;76.40;;;;;;5013032;28;20312;-76
2023/10/18 02:15:16;;;;;;;23.63;10.13;;;6.70;76.30;;;;;;5028832;28;20050;-75
2023/10/18 02:17:51;;;;;;;22.90;10.20;;;6.70;76.20;;;;;;5029087;28;20249;-76
2023/10/18 02:20:26;;;;;;;20.92;9.63;;;6.70;76.20;;;;;;5012351;28;20058;-76
2023/10/18 02:22:57;;;;;;;23.48;10.43;;;6.70;76.20;;;;;;5028823;28;20112;-76
2023/10/18 02:25:36;;;;;;;23.50;10.23;;;6.70;76.20;;;;;;5030321;28;20058;-75
2023/10/18 02:28:08;;;;;;;22.17;10.03;;;6.80;76.20;;;;;;5028916;28;20522;-76
2023/10/18 02:30:38;;;;;;;25.15;10.88;;;6.80;76.10;;;;;;5011597;28;20254;-76
2023/10/18 02:33:06;;;;;;;24.55;10.60;;;6.80;76.40;;;;;;5012431;28;20064;-76
2023/10/18 02:35:33;;;;;;;21.23;10.23;;;6.70;76.20;;;;;;5025085;28;20137;-76
2023/10/18 02:38:08;;;;;;;23.45;11.23;;;6.70;76.30;;;;;;5009040;28;20366;-76
2023/10/18 02:40:38;;;;;;;21.40;9.83;;;6.70;76.50;;;;;;4992265;28;20598;-76
2023/10/18 02:43:11;;;;;;;22.70;10.73;;;6.70;76.40;;;;;;5021009;28;20818;-76
2023/10/18 02:45:42;;;;;;;23.23;11.20;;;6.70;76.50;;;;;;5012393;28;20504;-76
2023/10/18 02:48:13;;;;;;;24.00;10.55;;;6.70;76.70;;;;;;5028872;28;20112;-75
2023/10/18 02:50:41;;;;;;;25.88;10.60;;;6.70;76.80;;;;;;5028209;28;20133;-76
2023/10/18 02:53:09;;;;;;;24.87;11.27;;;6.70;76.80;;;;;;5028833;28;20054;-76
2023/10/18 02:55:38;;;;;;;21.70;10.32;;;6.60;77.00;;;;;;5009136;28;20954;-76
2023/10/18 02:58:08;;;;;;;24.52;11.35;;;6.60;77.10;;;;;;5009308;28;20652;-76
2023/10/18 03:00:44;;;;;;;23.90;10.70;;;6.60;77.40;;;;;;5027664;28;20056;-76
2023/10/18 03:03:12;;;;;;;26.60;10.82;;;6.60;77.20;;;;;;5027458;28;20140;-76
2023/10/18 03:05:41;;;;;;;23.63;10.67;;;6.60;77.30;;;;;;5011940;28;20064;-76
2023/10/18 03:08:10;;;;;;;22.15;10.95;;;6.60;77.50;;;;;;5011658;28;20250;-75
2023/10/18 03:10:46;;;;;;;23.13;10.02;;;6.60;77.50;;;;;;5011858;28;20125;-75
2023/10/18 03:13:17;;;;;;;22.30;10.40;;;6.60;77.60;;;;;;5011447;28;20428;-76
2023/10/18 03:16:03;;;;;;;21.88;9.18;;;6.60;77.70;;;;;;5011562;28;20050;-76
2023/10/18 03:18:30;;;;;;;21.13;10.17;;;6.50;77.80;;;;;;5006786;28;20550;-76
2023/10/18 03:20:57;;;;;;;21.85;10.02;;;6.60;77.50;;;;;;5007669;28;20278;-76
2023/10/18 03:23:26;;;;;;;24.60;10.77;;;6.60;77.50;;;;;;5004157;28;20054;-76
2023/10/18 03:26:08;;;;;;;23.40;10.60;;;6.60;77.60;;;;;;5027914;28;20393;-76
2023/10/18 03:28:36;;;;;;;23.73;9.88;;;6.60;77.50;;;;;;5027594;28;20072;-75
2023/10/18 03:31:21;;;;;;;21.27;10.03;;;6.50;77.70;;;;;;5027621;28;20053;-76
2023/10/18 03:33:52;;;;;;;23.65;10.35;;;6.50;77.40;;;;;;4995006;28;20282;-76
2023/10/18 03:36:21;;;;;;;24.70;10.32;;;6.50;77.50;;;;;;4991471;28;20050;-75
2023/10/18 03:38:54;;;;;;;21.35;10.02;;;6.50;77.70;;;;;;5007395;28;20061;-76
2023/10/18 03:41:22;;;;;;;24.77;10.75;;;6.40;77.90;;;;;;4991297;28;20047;-76
2023/10/18 03:43:58;;;;;;;22.30;10.87;;;6.40;78.00;;;;;;5007240;28;20522;-76
2023/10/18 03:46:38;;;;;;;22.50;10.48;;;6.40;78.00;;;;;;5027935;28;20622;-75
2023/10/18 03:49:10;;;;;;;23.52;10.70;;;6.40;77.90;;;;;;4993140;28;20046;-76
2023/10/18 03:51:37;;;;;;;23.08;10.52;;;6.40;78.30;;;;;;5007754;28;20054;-75
2023/10/18 03:54:05;;;;;;;22.63;10.65;;;6.40;78.20;;;;;;5024798;28;20062;-75
2023/10/18 03:56:36;;;;;;;23.57;10.23;;;6.40;78.10;;;;;;5011581;28;20209;-75
2023/10/18 03:59:18;;;;;;;21.98;10.00;;;6.40;78.20;;;;;;5010673;28;20265;-76
2023/10/18 04:02:04;;;;;;;21.15;10.15;;;6.40;78.20;;;;;;5027637;28;20058;-76
2023/10/18 04:04:35;;;;;;;21.58;10.48;;;6.40;78.40;;;;;;5026562;28;20428;-76
2023/10/18 04:07:12;;;;;;;21.88;10.20;;;6.40;78.50;;;;;;5027605;28;20116;-76
2023/10/18 04:09:43;;;;;;;22.73;10.17;;;6.40;78.50;;;;;;5007708;28;20141;-75
2023/10/18 04:12:13;;;;;;;24.40;10.43;;;6.40;78.70;;;;;;5008057;28;20254;-76
2023/10/18 04:14:41;;;;;;;20.85;9.98;;;6.30;78.90;;;;;;5027273;28;20496;-76
2023/10/18 04:17:18;;;;;;;23.95;10.38;;;6.30;78.70;;;;;;5026918;28;20520;-76
2023/10/18 04:19:45;;;;;;;22.83;10.60;;;6.30;78.50;;;;;;4991169;28;20046;-76
2023/10/18 04:22:13;;;;;;;20.17;10.33;;;6.30;78.70;;;;;;5007371;28;20212;-76
2023/10/18 04:24:40;;;;;;;24.50;11.45;;;6.30;78.70;;;;;;5027572;28;20282;-75
2023/10/18 04:27:08;;;;;;;21.95;9.80;;;6.30;78.90;;;;;;5027352;28;20049;-75
2023/10/18 04:29:39;;;;;;;22.63;10.80;;;6.30;78.90;;;;;;5027168;28;20049;-76
2023/10/18 04:32:17;;;;;;;22.55;9.65;;;6.30;79.00;;;;;;5027631;28;20072;-76
2023/10/18 04:34:46;;;;;;;21.37;9.97;;;6.30;79.00;;;;;;5028301;28;20049;-76
2023/10/18 04:37:14;;;;;;;22.15;9.85;;;6.30;79.00;;;;;;5027162;28;20277;-76
2023/10/18 04:39:41;;;;;;;19.83;10.18;;;6.30;79.10;;;;;;5010665;28;20049;-75
2023/10/18 04:42:08;;;;;;;23.13;10.15;;;6.30;79.00;;;;;;5027157;28;20057;-76
2023/10/18 04:44:36;;;;;;;21.25;10.63;;;6.30;79.10;;;;;;5008387;28;20622;-76
2023/10/18 04:47:14;;;;;;;22.47;10.80;;;6.30;79.00;;;;;;5006581;28;20090;-76
2023/10/18 04:49:41;;;;;;;18.35;8.95;;;6.30;79.10;;;;;;5026557;28;20336;-76
2023/10/18 04:52:16;;;;;;;21.85;10.90;;;6.30;79.30;;;;;;5026876;28;20053;-75
2023/10/18 04:54:42;;;;;;;21.42;10.45;;;6.30;79.20;;;;;;5026447;28;20116;-76
2023/10/18 04:57:11;;;;;;;21.85;11.35;;;6.30;79.10;;;;;;5010194;28;20548;-76
2023/10/18 05:02:26;;;;;;;23.13;10.50;;;6.30;79.00;;;;;;5029672;28;20507;-76
2023/10/18 05:04:54;;;;;;;21.80;10.20;;;6.30;79.10;;;;;;5029616;28;20050;-76
2023/10/18 05:07:38;;;;;;;20.52;9.98;;;6.30;79.20;;;;;;5031126;28;20061;-75
2023/10/18 05:10:14;;;;;;;22.38;10.63;;;6.30;79.10;;;;;;5030974;28;20123;-76
2023/10/18 05:12:47;;;;;;;21.07;10.30;;;6.30;79.00;;;;;;5028025;28;20056;-77
2023/10/18 05:15:21;;;;;;;20.83;10.13;;;6.20;79.10;;;;;;5029287;28;20504;-76
2023/10/18 05:17:50;;;;;;;20.52;10.32;;;6.20;79.00;;;;;;5037514;28;20050;-76
2023/10/18 05:20:24;;;;;;;22.25;10.60;;;6.20;79.10;;;;;;5028034;28;20057;-76
2023/10/18 05:22:58;;;;;;;19.60;9.15;;;6.20;79.10;;;;;;5027680;28;20049;-76
2023/10/18 05:25:35;;;;;;;22.37;10.83;;;6.20;79.10;;;;;;5024887;28;20041;-76
2023/10/18 05:28:09;;;;;;;21.83;10.00;;;6.20;79.00;;;;;;5026169;28;20049;-76
2023/10/18 05:36:29;;;;;;;20.80;10.75;;;6.10;79.00;;;;;;5026895;28;20049;-76
2023/10/18 05:39:18;;;;;;;21.10;10.50;;;6.10;79.10;;;;;;5022927;28;20140;-76
2023/10/18 05:41:45;;;;;;;20.77;10.57;;;6.10;79.30;;;;;;5018014;28;20050;-76
2023/10/18 05:44:13;;;;;;;20.73;10.45;;;6.10;79.30;;;;;;5014666;28;20050;-76
2023/10/18 05:46:41;;;;;;;18.55;9.43;;;6.10;79.40;;;;;;5024914;28;20053;-76
2023/10/18 05:49:23;;;;;;;22.10;10.45;;;6.10;79.40;;;;;;5017927;28;20050;-76
2023/10/18 05:51:54;;;;;;;19.03;9.97;;;6.10;79.30;;;;;;5009306;28;20733;-76
2023/10/18 05:54:24;;;;;;;20.38;10.20;;;6.10;79.20;;;;;;5021033;28;20547;-76
2023/10/18 05:56:53;;;;;;;21.83;10.55;;;6.10;79.20;;;;;;5019034;28;20046;-75
2023/10/18 05:59:31;;;;;;;20.98;10.48;;;6.10;79.30;;;;;;5022173;28;20118;-76
2023/10/18 06:02:00;;;;;;;20.02;10.18;;;6.10;79.20;;;;;;5011730;28;20088;-75
2023/10/18 06:04:29;;;;;;;20.57;10.90;;;6.10;79.10;;;;;;5005357;28;20042;-75
2023/10/18 06:06:59;;;;;;;24.35;11.50;;;6.10;79.50;;;;;;5002264;28;20145;-76
2023/10/18 06:09:27;;;;;;;21.50;10.80;;;6.00;79.30;;;;;;5020923;28;20513;-76
2023/10/18 06:11:56;;;;;;;21.50;9.80;;;6.00;79.40;;;;;;5020331;28;20046;-76
2023/10/18 06:14:26;;;;;;;20.35;10.60;;;6.10;79.60;;;;;;5023946;28;20060;-76
2023/10/18 06:17:06;;;;;;;20.47;10.10;;;6.10;79.50;;;;;;5020838;28;20060;-76
2023/10/18 06:19:36;;;;;;;24.70;11.05;;;6.10;79.60;;;;;;5028205;28;20049;-76
2023/10/18 06:22:15;;;;;;;21.60;10.48;;;6.00;79.70;;;;;;5016003;28;20189;-76
2023/10/18 06:24:48;;;;;;;20.60;10.57;;;6.00;79.80;;;;;;5021091;28;20057;-76
2023/10/18 06:27:16;;;;;;;20.80;10.45;;;6.00;79.80;;;;;;5027457;28;20108;-76
2023/10/18 06:29:44;;;;;;;21.70;10.13;;;6.00;79.80;;;;;;5021782;28;20048;-76
2023/10/18 06:32:14;;;;;;;21.70;11.13;;;6.00;79.90;;;;;;5025885;28;20073;-76
2023/10/18 06:34:43;;;;;;;20.83;10.95;;;6.00;79.80;;;;;;5026363;28;20228;-76
2023/10/18 06:37:20;;;;;;;20.58;9.88;;;6.00;79.80;;;;;;5023812;28;20054;-76
2023/10/18 06:39:54;;;;;;;21.83;10.77;;;6.00;79.80;;;;;;5019144;28;20188;-76
2023/10/18 06:42:26;;;;;;;20.37;10.03;;;6.00;79.80;;;;;;5018590;28;20050;-76
2023/10/18 06:44:55;;;;;;;17.33;8.63;;;6.00;80.00;;;;;;5032540;28;20077;-76
2023/10/18 06:47:30;;;;;;;19.35;9.88;;;6.00;80.40;;;;;;5025562;28;20524;-76
2023/10/18 06:50:04;;;;;;;21.25;10.82;;;6.00;80.30;;;;;;5025500;28;20055;-76
2023/10/18 06:52:40;;;;;;;21.38;10.50;;;6.10;80.20;;;;;;5022388;28;20148;-76
2023/10/18 06:55:15;;;;;;;20.93;10.40;;;6.10;80.20;;;;;;5002188;28;20121;-76
2023/10/18 06:57:43;;;;;;;22.42;10.95;;;6.10;80.00;;;;;;5053016;28;20061;-76
2023/10/18 07:00:12;;;;;;;20.42;9.77;;;6.10;80.20;;;;;;5021372;28;20049;-76
2023/10/18 07:02:40;;;;;;;18.67;9.85;;;6.10;80.20;;;;;;5025658;28;20061;-76
2023/10/18 07:05:10;;;;;;;20.95;10.73;;;6.10;80.30;;;;;;5023805;28;20053;-76
2023/10/18 07:07:38;;;;;;;20.20;10.60;;;6.10;80.20;;;;;;5025855;28;21049;-76
2023/10/18 07:10:20;;;;;;;20.33;9.63;;;6.10;80.10;;;;;;5023888;28;20164;-76
2023/10/18 07:12:52;;;;;;;16.73;9.50;;;6.10;80.20;;;;;;5023197;28;20086;-76
2023/10/18 07:15:22;;;;;;;21.73;10.00;;;6.10;80.30;;;;;;5024019;28;20050;-76
2023/10/18 07:17:52;;;;;;;19.13;9.75;;;6.10;80.70;;;;;;5019706;28;20055;-76
2023/10/18 07:20:21;;;;;;;20.10;9.47;;;6.10;80.50;;;;;;5029881;28;20125;-76
2023/10/18 07:23:02;;;;;;;20.55;9.43;;;6.10;80.70;;;;;;5009173;28;20050;-76
2023/10/18 07:25:32;;;;;;;21.20;10.88;;;6.10;80.80;;;;;;5013182;28;20053;-76
2023/10/18 07:28:01;;;;;;;19.77;10.00;;;6.20;80.40;;;;;;5006793;28;20145;-75
2023/10/18 07:30:37;;;;;;;18.90;9.70;;;6.20;80.60;;;;;;5022817;28;20057;-76
2023/10/18 07:33:09;;;;;;;17.73;8.43;;;6.20;80.50;;;;;;5025965;28;20100;-75
2023/10/18 07:35:37;;;;;;;18.67;9.13;;;6.20;80.80;;;;;;5024282;28;20074;-76
2023/10/18 07:38:04;;;;;;;20.20;10.05;;;6.20;80.70;;;;;;5009046;28;20074;-76
2023/10/18 07:40:35;;;;;;;19.40;9.32;;;6.30;80.70;;;;;;5019697;28;20049;-76
2023/10/18 07:43:05;;;;;;;20.02;9.95;;;6.30;80.70;;;;;;5017398;28;20058;-76
2023/10/18 07:45:32;;;;;;;20.03;9.73;;;6.30;80.80;;;;;;5020041;28;20072;-75
2023/10/18 07:47:59;;;;;;;20.40;9.95;;;6.30;80.70;;;;;;5020494;28;20045;-75
2023/10/18 07:50:41;;;;;;;20.92;10.25;;;6.30;80.80;;;;;;5013067;28;20519;-75
2023/10/18 07:53:11;;;;;;;19.00;9.90;;;6.40;81.10;;;;;;5017159;28;20057;-75
2023/10/18 07:55:42;;;;;;;19.63;8.93;;;6.40;81.10;;;;;;5036674;28;20049;-75
2023/10/18 07:58:21;;;;;;;21.40;9.60;;;6.40;81.20;;;;;;5023688;28;20062;-75
2023/10/18 08:03:42;;;;;;;19.30;10.15;;;6.50;80.90;;;;;;5022510;28;20057;-75
2023/10/18 08:06:16;;;;;;;18.98;8.98;;;6.50;81.00;;;;;;5015848;28;20520;-76
2023/10/18 08:08:46;;;;;;;18.50;9.32;;;6.50;81.10;;;;;;5012779;28;20061;-76
2023/10/18 08:11:16;;;;;;;18.00;8.70;;;6.60;81.00;;;;;;5019041;28;20516;-76
2023/10/18 08:13:46;;;;;;;17.77;8.50;;;6.60;81.10;;;;;;5017046;28;21890;-76
2023/10/18 08:16:19;;;;;;;16.88;8.65;;;6.60;81.00;;;;;;5019078;28;20050;-75
2023/10/18 08:18:53;;;;;;;18.73;9.20;;;6.70;81.10;;;;;;5028833;28;20096;-76
2023/10/18 08:21:36;;;;;;;17.55;8.60;;;6.70;80.90;;;;;;5012782;28;20057;-76
2023/10/18 08:24:08;;;;;;;17.77;8.33;;;6.70;81.00;;;;;;5025677;28;20084;-76
2023/10/18 08:26:46;;;;;;;17.17;8.90;;;6.80;80.90;;;;;;5022947;28;20129;-76
2023/10/18 08:29:14;;;;;;;18.10;8.15;;;6.80;80.90;;;;;;5025029;28;20062;-76
2023/10/18 08:31:48;;;;;;;16.75;8.30;;;6.80;81.00;;;;;;5025219;28;20053;-76
2023/10/18 08:34:16;;;;;;;16.27;8.07;;;6.90;80.80;;;;;;5022678;28;20049;-76
2023/10/18 08:36:44;;;;;;;17.53;7.97;;;6.90;80.80;;;;;;5025179;28;20085;-76
2023/10/18 08:39:13;;;;;;;15.75;7.72;;;6.90;80.80;;;;;;5005582;28;20058;-77
2023/10/18 08:41:54;;;;;;;17.05;8.25;;;7.00;80.80;;;;;;5022781;28;20050;-76
2023/10/18 08:44:24;;;;;;;18.40;7.57;;;7.00;80.80;;;;;;5016968;28;20590;-76
2023/10/18 08:47:03;;;;;;;16.35;7.60;;;7.00;81.00;;;;;;5020248;28;20070;-77
2023/10/18 08:49:34;;;;;;;14.50;7.53;;;7.00;81.00;;;;;;5033657;28;20058;-76
2023/10/18 08:52:08;;;;;;;16.70;6.75;;;7.10;80.80;;;;;;5014354;28;20054;-76
2023/10/18 08:54:37;;;;;;;17.35;8.57;;;7.20;80.90;;;;;;5020810;28;20169;-76
2023/10/18 08:57:07;;;;;;;14.88;7.10;;;7.20;80.90;;;;;;5016694;28;20054;-76
2023/10/18 08:59:45;;;;;;;14.98;7.78;;;7.20;80.90;;;;;;5022521;28;20050;-76
2023/10/18 09:02:17;;;;;;;15.13;7.53;;;7.30;81.20;;;;;;5024179;28;20050;-77
2023/10/18 09:04:46;;;;;;;14.20;7.20;;;7.40;81.10;;;;;;5046463;28;20050;-77
2023/10/18 09:07:42;;;;;;;15.65;7.32;;;7.40;80.80;;;;;;5021406;28;20042;-76
2023/10/18 09:10:13;;;;;;;13.98;7.10;;;7.50;80.80;;;;;;5024089;28;20058;-76
2023/10/18 09:15:28;;;;;;;14.00;6.77;;;7.50;80.50;;;;;;5023975;28;20050;-77
2023/10/18 09:17:55;;;;;;;15.07;8.10;;;7.60;80.40;;;;;;5014980;28;20511;-77
2023/10/18 09:20:26;;;;;;;16.60;6.97;;;7.60;80.30;;;;;;5014377;28;20144;-74
2023/10/18 09:22:53;;;;;;;13.82;7.25;;;7.70;80.20;;;;;;5016962;28;20518;-76
2023/10/18 09:25:24;;;;;;;14.13;7.60;;;7.80;80.10;;;;;;5019854;28;20108;-77
2023/10/18 09:27:55;;;;;;;14.60;7.23;;;7.80;80.10;;;;;;5015794;28;20042;-76
2023/10/18 09:30:22;;;;;;;13.82;6.70;;;7.80;80.10;;;;;;5016355;28;20053;-77
2023/10/18 09:32:50;;;;;;;14.27;6.57;;;7.90;80.10;;;;;;5016157;28;20571;-76
2023/10/18 09:35:25;;;;;;;12.93;7.10;;;8.00;80.00;;;;;;5012351;28;20567;-77
2023/10/18 09:37:53;;;;;;;13.57;7.18;;;8.00;79.90;;;;;;5013790;28;20566;-77
2023/10/18 09:40:20;;;;;;;13.47;6.80;;;8.00;79.80;;;;;;5017923;28;20728;-76
2023/10/18 09:42:50;;;;;;;12.63;6.55;;;8.10;79.80;;;;;;5049903;28;20050;-77
2023/10/18 09:45:20;;;;;;;12.63;6.15;;;8.10;79.60;;;;;;5034385;28;20056;-77
2023/10/18 09:47:48;;;;;;;14.10;6.75;;;8.20;79.70;;;;;;5038567;28;20555;-76
2023/10/18 09:50:23;;;;;;;14.15;7.18;;;8.20;79.60;;;;;;5030819;28;20053;-77
2023/10/18 09:52:56;;;;;;;13.27;6.60;;;8.30;79.60;;;;;;5028938;28;20054;-76
2023/10/18 09:55:26;;;;;;;13.40;6.35;;;8.30;79.40;;;;;;5028399;28;20140;-77
2023/10/18 09:58:02;;;;;;;11.95;6.25;;;8.40;79.30;;;;;;5026899;28;20544;-76
2023/10/18 10:00:33;;;;;;;11.85;6.22;;;8.50;79.10;;;;;;5022440;28;20503;-76
2023/10/18 10:03:08;;;;;;;12.95;6.50;;;8.50;79.20;;;;;;5035963;28;20057;-77
2023/10/18 10:05:41;;;;;;;13.33;6.80;;;8.60;78.90;;;;;;5027464;28;20052;-77
2023/10/18 10:08:09;;;;;;;12.32;6.22;;;8.60;78.70;;;;;;5025751;28;20062;-74
2023/10/18 10:10:45;;;;;;;15.23;7.15;;;8.70;78.50;;;;;;5032301;28;20162;-78
2023/10/18 10:13:19;;;;;;;13.52;6.03;;;8.80;78.50;;;;;;5016630;28;20540;-78
2023/10/18 10:15:54;;;;;;;12.57;6.35;;;8.80;78.30;;;;;;5027110;28;20595;-76
2023/10/18 10:18:26;;;;;;;12.57;6.77;;;8.90;78.10;;;;;;5030662;28;20508;-75
2023/10/18 10:20:56;;;;;;;11.80;6.47;;;8.90;78.00;;;;;;5018347;28;20140;-76
2023/10/18 10:23:23;;;;;;;13.02;5.90;;;9.00;77.80;;;;;;5008536;28;20061;-76
2023/10/18 10:26:12;;;;;;;12.40;6.57;;;9.00;77.70;;;;;;5025447;28;20054;-76
2023/10/18 10:31:56;;;;;;;12.83;6.50;;;9.10;77.60;;;;;;5026061;28;20050;-76
2023/10/18 10:34:27;;;;;;;12.85;6.60;;;9.20;77.60;;;;;;5026343;28;20079;-77
2023/10/18 10:37:08;;;;;;;11.82;6.32;;;9.20;77.40;;;;;;5028819;28;20050;-77
2023/10/18 10:39:43;;;;;;;10.65;5.50;;;9.20;77.40;;;;;;5027121;28;20291;-79
2023/10/18 10:42:27;;;;;;;13.27;6.63;;;9.30;77.10;;;;;;5027062;28;20970;-77
2023/10/18 10:45:06;;;;;;;12.37;6.53;;;9.40;76.90;;;;;;5023131;28;20061;-78
2023/10/18 10:47:42;;;;;;;11.68;5.25;;;9.40;76.70;;;;;;5027736;28;20132;-77
2023/10/18 10:50:10;;;;;;;11.50;5.05;;;9.40;76.60;;;;;;5009556;28;20520;-77
2023/10/18 10:52:40;;;;;;;11.13;5.57;;;9.50;76.30;;;;;;5025551;28;20148;-78
2023/10/18 10:55:22;;;;;;;11.25;5.90;;;9.50;76.30;;;;;;5027113;28;20088;-77
2023/10/18 10:57:51;;;;;;;11.60;5.53;;;9.50;76.20;;;;;;5030889;28;20054;-77
2023/10/18 11:03:28;;;;;;;10.23;5.55;;;9.60;76.10;;;;;;5028117;28;20050;-77
2023/10/18 11:05:58;;;;;;;13.55;5.53;;;9.70;75.90;;;;;;5011900;28;20132;-78
2023/10/18 11:08:27;;;;;;;11.38;5.50;;;9.70;75.80;;;;;;5029844;28;20613;-78
2023/10/18 11:10:55;;;;;;;11.40;6.10;;;9.80;75.90;;;;;;5028566;28;20065;-78
2023/10/18 11:13:24;;;;;;;10.55;5.40;;;9.80;75.70;;;;;;5028259;28;20053;-76
2023/10/18 11:15:52;;;;;;;10.70;5.22;;;9.90;75.70;;;;;;5027228;28;20046;-78
2023/10/18 11:18:22;;;;;;;11.82;5.60;;;10.00;75.60;;;;;;5029799;28;20065;-78
2023/10/18 11:20:58;;;;;;;11.80;5.45;;;10.00;75.30;;;;;;5009804;28;20050;-77
2023/10/18 11:23:27;;;;;;;11.00;5.77;;;10.00;75.50;;;;;;5026023;28;20061;-77
2023/10/18 11:25:56;;;;;;;10.93;5.53;;;10.10;75.20;;;;;;5026209;28;20050;-79
2023/10/18 11:28:28;;;;;;;10.48;5.35;;;10.10;74.90;;;;;;5010213;28;20108;-79
2023/10/18 11:30:57;;;;;;;10.55;5.50;;;10.20;75.00;;;;;;5023663;28;20065;-79
2023/10/18 11:33:46;;;;;;;9.35;4.65;;;10.30;74.50;;;;;;5025874;28;20061;-79
2023/10/18 11:36:17;;;;;;;11.10;5.53;;;10.30;74.20;;;;;;5021449;28;20050;-78
2023/10/18 11:39:07;;;;;;;9.30;4.68;;;10.40;74.30;;;;;;5026932;28;20061;-79
2023/10/18 11:41:36;;;;;;;10.65;4.97;;;10.40;74.40;;;;;;5024696;28;20053;-78
2023/10/18 11:44:06;;;;;;;9.85;5.07;;;10.50;73.90;;;;;;5024025;28;20058;-78
2023/10/18 11:46:50;;;;;;;9.77;4.90;;;10.50;73.20;;;;;;5018322;28;20097;-79
2023/10/18 11:49:20;;;;;;;8.73;5.07;;;10.60;72.90;;;;;;5018547;28;20711;-78
2023/10/18 11:51:48;;;;;;;8.60;4.50;;;10.60;72.50;;;;;;5019982;28;20455;-78
2023/10/18 11:54:31;;;;;;;9.60;4.88;;;10.70;72.20;;;;;;5016395;28;20058;-78
2023/10/18 11:56:58;;;;;;;9.40;5.03;;;10.70;71.70;;;;;;5017509;28;20655;-78
2023/10/18 11:59:26;;;;;;;9.07;5.00;;;10.70;71.60;;;;;;5018890;28;20046;-78
2023/10/18 12:01:57;;;;;;;9.80;4.90;;;10.70;71.60;;;;;;5026482;28;20054;-79
2023/10/18 12:04:29;;;;;;;8.93;4.68;;;10.80;71.60;;;;;;5029195;28;20514;-78
2023/10/18 12:06:57;;;;;;;9.50;4.53;;;10.80;71.60;;;;;;5027619;28;20048;-79
2023/10/18 12:09:30;;;;;;;9.88;5.05;;;10.80;71.80;;;;;;5026672;28;20934;-78
2023/10/18 12:12:04;;;;;;;8.95;4.70;;;10.90;71.10;;;;;;5029251;28;20057;-79
2023/10/18 12:14:32;;;;;;;9.93;4.60;;;10.90;71.30;;;;;;5027252;28;20053;-79
2023/10/18 12:17:00;;;;;;;9.52;4.25;;;10.90;70.90;;;;;;5027117;28;20070;-79
2023/10/18 12:19:31;;;;;;;8.57;4.53;;;10.90;70.20;;;;;;5027076;28;20108;-75
2023/10/18 12:21:59;;;;;;;9.90;4.75;;;11.00;70.50;;;;;;5015486;28;20055;-78
2023/10/18 12:24:28;;;;;;;8.10;4.38;;;11.00;70.80;;;;;;5004816;28;20050;-77
2023/10/18 12:26:55;;;;;;;9.03;4.60;;;11.00;70.90;;;;;;5005655;28;20058;-77
2023/10/18 12:29:27;;;;;;;8.73;4.25;;;11.00;71.10;;;;;;5027023;28;20042;-77
2023/10/18 12:32:07;;;;;;;10.30;5.10;;;11.10;70.80;;;;;;5035247;28;20536;-77
2023/10/18 12:34:43;;;;;;;8.38;4.43;;;11.10;71.00;;;;;;5025579;28;20108;-77
2023/10/18 12:37:13;;;;;;;9.50;4.97;;;11.10;70.70;;;;;;5012385;28;20101;-77
2023/10/18 12:39:46;;;;;;;10.37;4.60;;;11.10;70.80;;;;;;4989659;28;20076;-77
2023/10/18 12:42:14;;;;;;;10.25;5.00;;;11.20;70.00;;;;;;4989601;28;20054;-77
2023/10/18 12:44:45;;;;;;;9.25;4.18;;;11.30;69.50;;;;;;5005385;28;20093;-77
2023/10/18 12:47:12;;;;;;;9.30;4.32;;;11.30;69.40;;;;;;5020946;28;20046;-77
2023/10/18 12:49:45;;;;;;;9.73;4.50;;;11.30;69.10;;;;;;5027506;28;20129;-77
2023/10/18 12:54:56;;;;;;;8.52;4.45;;;11.30;69.10;;;;;;4989693;28;20900;-77
2023/10/18 12:57:32;;;;;;;9.68;4.78;;;11.40;68.80;;;;;;5021056;28;20061;-77
2023/10/18 13:00:13;;;;;;;9.57;4.95;;;11.40;69.10;;;;;;5027013;28;20471;-77
2023/10/18 13:02:51;;;;;;;9.23;5.10;;;11.40;69.00;;;;;;5010367;28;20077;-77
2023/10/18 13:05:19;;;;;;;8.93;4.57;;;11.50;69.00;;;;;;5008424;28;20051;-77
2023/10/18 13:07:46;;;;;;;10.18;5.15;;;11.50;68.70;;;;;;5006917;28;20124;-77
2023/10/18 13:10:14;;;;;;;10.35;4.95;;;11.50;69.00;;;;;;5028364;28;20058;-77
2023/10/18 13:12:44;;;;;;;12.15;5.35;;;11.50;69.20;;;;;;5010654;28;20045;-77
2023/10/18 13:15:14;;;;;;;9.95;5.90;;;11.60;69.40;;;;;;5007148;28;20057;-78
2023/10/18 13:17:42;;;;;;;11.43;5.43;;;11.70;69.50;;;;;;5023612;28;20060;-78
2023/10/18 13:20:15;;;;;;;12.27;5.70;;;11.70;69.60;;;;;;5027604;28;20113;-77
2023/10/18 13:22:44;;;;;;;10.00;5.35;;;11.70;69.00;;;;;;5016111;28;20050;-77
2023/10/18 13:25:25;;;;;;;11.43;5.07;;;11.80;68.90;;;;;;5023921;28;20559;-78
2023/10/18 13:27:53;;;;;;;8.85;4.65;;;11.90;68.50;;;;;;5031364;28;20094;-77